< Typhoon 201325 2013 Season Typhoon 201327 >
Typhoon 201326 (WIPHA)
General InformationTrack Information on Google MapsDetailed Wind InformationForecast History on Google MapsAccess Analytics MapList of All Images || NewsDisaster Info.WeblogTrackbackTyphoon FrontTwiphoonTyphoon Now!Typhoon ImaginationDisaster Info. XMLResourceGoogle EarthGE AnimationAtom FeedGeoJSON
Detalied Best Track (Time Zone = UTC)
Year Month Day Hour Lat. Long. Pressure (hPa) Wind (kt) Class Image Chart
2013 10 9 00 14.0 149.0 1004 0 2 Image Chart
2013 10 9 06 13.8 148.1 1002 0 2 Image Chart
2013 10 9 12 13.5 147.0 1004 0 2 Image Chart
2013 10 9 18 13.5 146.2 1002 0 2 Image Chart
2013 10 10 00 13.5 145.6 1002 0 2 Image Chart
2013 10 10 06 13.9 144.7 1000 0 2 Image Chart
2013 10 10 12 13.8 143.7 998 35 3 Image Chart
2013 10 10 18 13.5 142.8 996 35 3 Image Chart
2013 10 11 00 13.7 142.1 994 40 3 Image Chart
2013 10 11 06 14.2 140.7 992 45 3 Image Chart
2013 10 11 12 14.7 140.5 990 50 4 Image Chart
2013 10 11 18 15.4 139.8 985 55 4 Image Chart
2013 10 12 00 16.1 139.2 980 60 4 Image Chart
2013 10 12 06 16.7 138.8 980 60 4 Image Chart
2013 10 12 12 17.3 138.4 970 65 5 Image Chart
2013 10 12 18 17.9 137.9 960 70 5 Image Chart
2013 10 13 00 18.4 137.4 955 75 5 Image Chart
2013 10 13 06 19.1 137.1 950 80 5 Image Chart
2013 10 13 12 19.8 136.4 930 90 5 Image Chart
2013 10 13 18 20.5 136.0 930 90 5 Image Chart
2013 10 14 00 21.8 135.5 935 85 5 Image Chart
2013 10 14 06 23.0 134.9 940 80 5 Image Chart
2013 10 14 12 24.2 134.3 940 80 5 Image Chart
2013 10 14 18 25.4 133.9 945 75 5 Image Chart
2013 10 15 00 26.7 133.9 945 75 5 Image Chart
2013 10 15 06 28.5 134.7 945 75 5 Image Chart
2013 10 15 09 29.4 135.4 945 75 5 Image Chart
2013 10 15 12 30.4 136.5 950 70 5 Image Chart
2013 10 15 15 31.6 137.4 950 70 5 Image Chart
2013 10 15 18 32.8 138.6 950 70 5 Image Chart
2013 10 15 21 34.4 140.3 955 70 5 Image Chart
2013 10 16 00 36.2 141.8 960 70 5 Image Chart
2013 10 16 03 38.4 143.6 965 60 4 Image Chart
2013 10 16 06 41.0 146.0 968 0 6 Image Chart
2013 10 16 12 43.6 148.6 964 0 6 Image Chart
2013 10 16 18 47.7 154.5 958 0 6 Image Chart
2013 10 17 00 50.1 157.6 960 0 6 Image Chart
2013 10 17 06 51.7 161.9 964 0 6 Image Chart
2013 10 17 12 52.6 164.4 964 0 6 Image Chart
2013 10 17 18 53.3 169.2 964 0 6 Image Chart
2013 10 18 00 53.5 173.2 964 0 6 Image Chart
2013 10 18 06 54.4 178.6 964 0 6 Image Chart
2013 10 18 12 54.7 182.5 968 0 6 Image Chart
Japan Meteorological Agency Best Track Data | Correction Date : 2013-11-18
< Typhoon 201325 2013 Season Typhoon 201327 >

Help